createdAt,value
2019-02-28T00:00:07.411Z,2.10
2019-02-28T00:02:47.897Z,2.10
2019-02-28T00:05:27.941Z,2.00
2019-02-28T00:08:08.073Z,1.90
2019-02-28T00:10:47.738Z,1.90
2019-02-28T00:13:28.101Z,1.90
2019-02-28T00:16:07.986Z,2.00
2019-02-28T00:18:49.921Z,2.00
2019-02-28T00:21:30.482Z,1.90
2019-02-28T00:24:10.623Z,1.90
2019-02-28T00:26:50.616Z,2.00
2019-02-28T00:29:33.378Z,2.10
2019-02-28T00:32:12.779Z,2.20
2019-02-28T00:34:52.665Z,2.30
2019-02-28T00:37:33.210Z,2.20
2019-02-28T00:40:13.358Z,2.20
2019-02-28T00:42:54.399Z,2.10
2019-02-28T00:45:37.130Z,2.10
2019-02-28T00:48:18.257Z,2.30
2019-02-28T00:50:59.277Z,2.40
2019-02-28T00:53:39.690Z,2.40
2019-02-28T00:56:19.955Z,2.40
2019-02-28T00:59:01.160Z,2.40
2019-02-28T01:01:43.056Z,2.30
2019-02-28T01:04:25.352Z,2.20
2019-02-28T01:07:05.350Z,2.10
2019-02-28T01:09:45.467Z,2.50
2019-02-28T01:12:25.217Z,2.10
2019-02-28T01:15:07.222Z,1.90
2019-02-28T01:17:47.990Z,1.90
2019-02-28T01:20:27.864Z,1.80
2019-02-28T01:23:08.137Z,1.80
2019-02-28T01:25:48.206Z,1.70
2019-02-28T01:28:28.145Z,1.60
2019-02-28T01:31:11.530Z,1.50
2019-02-28T01:33:37.593Z,1.60
2019-02-28T01:36:24.328Z,1.70
2019-02-28T01:39:11.413Z,1.60
2019-02-28T01:41:58.537Z,1.40
2019-02-28T01:44:38.854Z,1.50
2019-02-28T01:47:19.870Z,1.50
2019-02-28T01:50:00.837Z,1.50
2019-02-28T01:52:44.391Z,1.50
2019-02-28T01:55:23.609Z,1.50
2019-02-28T01:58:03.999Z,1.40
2019-02-28T02:00:44.296Z,1.50
2019-02-28T02:03:24.481Z,1.60
2019-02-28T02:06:04.496Z,1.60
2019-02-28T02:08:44.229Z,1.70
2019-02-28T02:11:26.703Z,1.70
2019-02-28T02:14:07.446Z,1.80
2019-02-28T02:16:48.886Z,1.80
2019-02-28T02:19:28.998Z,1.60
2019-02-28T02:22:10.111Z,1.60
2019-02-28T02:24:49.910Z,1.50
2019-02-28T02:27:29.841Z,1.60
2019-02-28T02:30:15.252Z,1.40
2019-02-28T02:32:52.187Z,1.40
2019-02-28T02:35:32.337Z,1.30
2019-02-28T02:38:12.446Z,1.30
2019-02-28T02:40:59.003Z,1.20
2019-02-28T02:43:34.290Z,1.30
2019-02-28T02:46:19.799Z,1.30
2019-02-28T02:48:56.023Z,1.30
2019-02-28T02:51:35.972Z,1.30
2019-02-28T02:54:19.523Z,1.30
2019-02-28T02:56:58.338Z,1.20
2019-02-28T02:59:39.477Z,1.10
2019-02-28T03:02:19.846Z,1.00
2019-02-28T03:04:59.813Z,1.00
2019-02-28T03:07:39.603Z,1.10
2019-02-28T03:10:20.065Z,1.00
2019-02-28T03:13:04.660Z,0.90
2019-02-28T03:15:41.943Z,0.80
2019-02-28T03:18:21.939Z,0.80
2019-02-28T03:21:02.183Z,0.90
2019-02-28T03:23:42.537Z,0.90
2019-02-28T03:26:23.051Z,0.90
2019-02-28T03:29:07.520Z,0.80
2019-02-28T03:31:54.902Z,0.90
2019-02-28T03:34:26.952Z,0.80
2019-02-28T03:37:07.057Z,1.00
2019-02-28T03:39:47.392Z,0.90
2019-02-28T03:42:28.949Z,0.90
2019-02-28T03:45:09.736Z,0.90
2019-02-28T03:47:49.575Z,0.90
2019-02-28T03:50:29.519Z,0.90
2019-02-28T03:53:09.883Z,1.10
2019-02-28T03:55:49.264Z,1.10
2019-02-28T03:58:29.657Z,0.80
2019-02-28T04:01:10.393Z,0.70
2019-02-28T04:03:50.937Z,0.80
2019-02-28T04:06:30.771Z,0.90
2019-02-28T04:09:10.457Z,0.90
2019-02-28T04:11:50.999Z,0.80
2019-02-28T04:14:33.259Z,0.90
2019-02-28T04:17:13.420Z,1.20
2019-02-28T04:19:58.767Z,1.00
2019-02-28T04:22:35.978Z,1.00
2019-02-28T04:25:22.846Z,1.10
2019-02-28T04:27:57.637Z,1.10
2019-02-28T04:30:42.605Z,1.10
2019-02-28T04:33:19.381Z,1.10
2019-02-28T04:36:00.503Z,1.10
2019-02-28T04:38:41.390Z,1.10
2019-02-28T04:41:21.574Z,1.10
2019-02-28T04:44:01.485Z,1.10
2019-02-28T04:46:42.245Z,1.00
2019-02-28T04:49:22.881Z,1.00
2019-02-28T04:52:03.657Z,1.20
2019-02-28T04:54:43.725Z,1.10
2019-02-28T04:57:23.643Z,1.30
2019-02-28T05:00:05.888Z,1.40
2019-02-28T05:02:45.373Z,1.40
2019-02-28T05:05:25.060Z,1.40
2019-02-28T05:08:05.973Z,1.30
2019-02-28T05:10:46.505Z,1.20
2019-02-28T05:13:26.505Z,1.10
2019-02-28T05:16:06.073Z,1.10
2019-02-28T05:18:46.726Z,1.10
2019-02-28T05:21:26.466Z,1.10
2019-02-28T05:24:07.725Z,1.10
2019-02-28T05:26:48.449Z,1.20
2019-02-28T05:29:28.243Z,1.20
2019-02-28T05:32:08.449Z,1.10
2019-02-28T05:34:51.067Z,1.10
2019-02-28T05:37:30.995Z,1.20
2019-02-28T05:40:11.065Z,1.20
2019-02-28T05:42:50.850Z,1.20
2019-02-28T05:45:30.482Z,1.20
2019-02-28T05:48:10.422Z,1.20
2019-02-28T05:50:53.347Z,1.30
2019-02-28T05:53:32.830Z,1.20
2019-02-28T05:56:12.830Z,1.30
2019-02-28T05:58:53.410Z,1.30
2019-02-28T06:01:33.670Z,1.30
2019-02-28T06:04:14.037Z,1.30
2019-02-28T06:06:55.517Z,1.30
2019-02-28T06:09:35.800Z,1.20
2019-02-28T06:12:15.509Z,1.20
2019-02-28T06:15:01.859Z,1.30
2019-02-28T06:17:37.635Z,1.30
2019-02-28T06:20:18.107Z,1.30
2019-02-28T06:22:57.813Z,1.20
2019-02-28T06:25:38.285Z,1.30
2019-02-28T06:28:18.889Z,1.40
2019-02-28T06:31:00.202Z,1.50
2019-02-28T06:33:40.302Z,1.40
2019-02-28T06:36:20.738Z,1.50
2019-02-28T06:39:00.819Z,1.50
2019-02-28T06:41:40.944Z,1.40
2019-02-28T06:44:20.745Z,1.40
2019-02-28T06:47:00.289Z,1.40
2019-02-28T06:49:41.888Z,1.60
2019-02-28T06:52:22.257Z,1.70
2019-02-28T06:55:03.897Z,1.70
2019-02-28T06:57:44.091Z,1.60
2019-02-28T07:00:23.644Z,1.70
2019-02-28T07:03:04.467Z,1.70
2019-02-28T07:05:45.074Z,1.80
2019-02-28T07:08:28.813Z,1.80
2019-02-28T07:11:07.413Z,1.90
2019-02-28T07:13:47.329Z,2.10
2019-02-28T07:16:27.342Z,2.00
2019-02-28T07:19:07.229Z,2.20
2019-02-28T07:21:47.812Z,2.20
2019-02-28T07:24:27.678Z,2.20
2019-02-28T07:27:07.977Z,2.30
2019-02-28T07:29:48.254Z,2.30
2019-02-28T07:32:31.357Z,2.40
2019-02-28T07:35:10.330Z,2.80
2019-02-28T07:37:53.618Z,2.90
2019-02-28T07:40:33.300Z,3.10
2019-02-28T07:43:13.369Z,3.40
2019-02-28T07:45:53.661Z,3.60
2019-02-28T07:48:33.687Z,3.70
2019-02-28T07:51:14.187Z,3.90
2019-02-28T07:53:54.253Z,4.10
2019-02-28T07:56:34.157Z,4.20
2019-02-28T07:59:13.923Z,4.50
2019-02-28T08:01:54.567Z,4.60
2019-02-28T08:04:34.800Z,5.00
2019-02-28T08:07:15.760Z,5.30
2019-02-28T08:09:58.037Z,5.80
2019-02-28T08:12:37.860Z,6.00
2019-02-28T08:15:22.280Z,6.30
2019-02-28T08:18:00.157Z,6.60
2019-02-28T08:20:40.449Z,6.80
2019-02-28T08:23:20.134Z,7.00
2019-02-28T08:26:00.305Z,7.10
2019-02-28T08:28:40.659Z,7.30
2019-02-28T08:31:20.657Z,7.40
2019-02-28T08:34:00.641Z,7.50
2019-02-28T08:36:43.878Z,7.70
2019-02-28T08:39:23.153Z,7.80
2019-02-28T08:42:04.392Z,7.80
2019-02-28T08:44:44.822Z,7.90
2019-02-28T08:47:25.175Z,8.00
2019-02-28T08:50:04.979Z,8.10
2019-02-28T08:52:45.223Z,8.20
2019-02-28T08:55:28.616Z,8.30
2019-02-28T08:58:06.824Z,8.40
2019-02-28T09:00:46.857Z,8.50
2019-02-28T09:03:27.427Z,8.60
2019-02-28T09:06:07.656Z,8.50
2019-02-28T09:08:48.073Z,8.90
2019-02-28T09:11:28.289Z,8.90
2019-02-28T09:14:10.330Z,9.00
2019-02-28T09:16:50.946Z,9.10
2019-02-28T09:19:32.648Z,9.10
2019-02-28T09:22:12.522Z,9.10
2019-02-28T09:24:52.414Z,9.30
2019-02-28T09:27:35.356Z,9.30
2019-02-28T09:30:14.850Z,9.40
2019-02-28T09:32:55.097Z,9.50
2019-02-28T09:35:34.976Z,9.60
2019-02-28T09:38:14.866Z,9.70
2019-02-28T09:40:55.141Z,9.80
2019-02-28T09:43:35.400Z,9.90
2019-02-28T09:46:15.560Z,9.90
2019-02-28T09:48:56.538Z,10.00
2019-02-28T09:51:36.566Z,10.10
2019-02-28T09:54:16.903Z,10.20
2019-02-28T09:56:57.055Z,10.20
2019-02-28T09:59:37.819Z,10.30
2019-02-28T10:02:19.454Z,10.40
2019-02-28T10:05:02.738Z,10.40
2019-02-28T10:07:41.274Z,10.50
2019-02-28T10:10:22.010Z,10.60
2019-02-28T10:13:02.651Z,10.60
2019-02-28T10:15:42.530Z,10.70
2019-02-28T10:18:23.041Z,10.70
2019-02-28T10:21:03.204Z,10.70
2019-02-28T10:23:43.000Z,10.90
2019-02-28T10:26:23.020Z,10.90
2019-02-28T10:29:04.534Z,11.00
2019-02-28T10:31:45.258Z,11.10
2019-02-28T10:34:26.382Z,11.20
2019-02-28T10:37:07.507Z,11.30
2019-02-28T10:39:47.677Z,11.30
2019-02-28T10:42:27.874Z,11.40
2019-02-28T10:45:07.606Z,11.40
2019-02-28T10:47:47.621Z,11.50
2019-02-28T10:50:32.092Z,11.60
2019-02-28T10:53:09.518Z,11.60
2019-02-28T10:55:49.278Z,11.70
2019-02-28T10:58:29.469Z,11.80
2019-02-28T11:01:09.597Z,11.80
2019-02-28T11:03:49.286Z,11.80
2019-02-28T11:06:29.530Z,11.80
2019-02-28T11:09:09.586Z,11.80
2019-02-28T11:11:49.717Z,11.90
2019-02-28T11:14:30.021Z,12.00
2019-02-28T11:17:13.695Z,12.10
2019-02-28T11:19:52.739Z,12.20
2019-02-28T11:22:33.251Z,12.30
2019-02-28T11:25:13.082Z,12.40
2019-02-28T11:27:53.759Z,12.40
2019-02-28T11:30:36.167Z,12.40
2019-02-28T11:33:16.216Z,12.40
2019-02-28T11:35:59.166Z,12.40
2019-02-28T11:38:38.475Z,12.40
2019-02-28T11:41:19.568Z,12.50
2019-02-28T11:43:59.461Z,12.50
2019-02-28T11:46:39.447Z,12.50
2019-02-28T11:49:19.312Z,12.60
2019-02-28T11:51:59.566Z,12.50
2019-02-28T11:54:39.805Z,12.70
2019-02-28T11:57:20.694Z,12.90
2019-02-28T12:00:01.597Z,12.90
2019-02-28T12:02:42.008Z,13.00
2019-02-28T12:05:22.288Z,13.10
2019-02-28T12:08:02.570Z,13.20
2019-02-28T12:10:42.564Z,13.10
2019-02-28T12:13:22.489Z,13.30
2019-02-28T12:16:02.707Z,13.30
2019-02-28T12:18:42.515Z,13.30
2019-02-28T12:21:22.764Z,13.40
2019-02-28T12:24:02.907Z,13.40
2019-02-28T12:26:43.290Z,13.40
2019-02-28T12:29:22.966Z,13.50
2019-02-28T12:32:02.882Z,13.50
2019-02-28T12:34:42.880Z,13.50
2019-02-28T12:37:24.688Z,13.60
2019-02-28T12:40:07.335Z,13.60
2019-02-28T12:42:47.129Z,13.50
2019-02-28T12:45:27.221Z,13.40
2019-02-28T12:48:07.239Z,13.30
2019-02-28T12:50:47.363Z,13.30
2019-02-28T12:53:27.373Z,13.40
2019-02-28T12:56:07.254Z,13.30
2019-02-28T12:58:47.361Z,13.30
2019-02-28T13:01:27.280Z,13.50
2019-02-28T13:04:07.592Z,13.50
2019-02-28T13:06:47.358Z,13.70
2019-02-28T13:09:27.432Z,13.80
2019-02-28T13:12:08.292Z,13.90
2019-02-28T13:14:49.245Z,13.90
2019-02-28T13:17:31.663Z,13.90
2019-02-28T13:20:11.808Z,14.10
2019-02-28T13:22:51.551Z,14.10
2019-02-28T13:25:31.561Z,14.00
2019-02-28T13:28:11.625Z,14.00
2019-02-28T13:30:52.558Z,14.10
2019-02-28T13:33:33.197Z,14.10
2019-02-28T13:36:13.360Z,14.00
2019-02-28T13:38:55.775Z,13.90
2019-02-28T13:41:35.582Z,13.90
2019-02-28T13:44:15.756Z,13.90
2019-02-28T13:46:55.965Z,14.00
2019-02-28T13:49:36.208Z,14.10
2019-02-28T13:52:20.526Z,14.20
2019-02-28T13:54:58.345Z,14.30
2019-02-28T13:57:40.743Z,14.30
2019-02-28T14:00:21.371Z,14.40
2019-02-28T14:03:01.602Z,14.40
2019-02-28T14:05:41.889Z,14.40
2019-02-28T14:08:22.118Z,14.40
2019-02-28T14:11:05.738Z,14.40
2019-02-28T14:13:44.689Z,14.50
2019-02-28T14:16:26.912Z,14.60
2019-02-28T14:19:06.782Z,14.70
2019-02-28T14:21:47.238Z,14.60
2019-02-28T14:24:30.940Z,14.60
2019-02-28T14:27:09.501Z,14.70
2019-02-28T14:29:50.289Z,14.60
2019-02-28T14:32:30.298Z,14.60
2019-02-28T14:35:10.617Z,14.60
2019-02-28T14:37:51.773Z,14.60
2019-02-28T14:40:32.496Z,14.80
2019-02-28T14:43:12.769Z,14.70
2019-02-28T14:45:53.065Z,14.70
2019-02-28T14:48:32.826Z,14.70
2019-02-28T14:51:13.125Z,14.70
2019-02-28T14:53:52.865Z,14.60
2019-02-28T14:56:33.250Z,14.50
2019-02-28T14:59:13.202Z,14.70
2019-02-28T15:01:54.116Z,14.60
2019-02-28T15:04:34.340Z,14.60
2019-02-28T15:07:14.283Z,14.60
2019-02-28T15:09:54.305Z,14.40
2019-02-28T15:12:36.396Z,14.40
2019-02-28T15:15:18.019Z,14.30
2019-02-28T15:17:58.566Z,14.30
2019-02-28T15:20:38.497Z,14.30
2019-02-28T15:23:18.934Z,14.10
2019-02-28T15:25:58.866Z,14.10
2019-02-28T15:28:38.680Z,14.20
2019-02-28T15:31:18.458Z,14.10
2019-02-28T15:33:59.052Z,14.10
2019-02-28T15:36:38.838Z,14.10
2019-02-28T15:39:19.357Z,14.10
2019-02-28T15:41:59.079Z,14.20
2019-02-28T15:44:39.577Z,14.20
2019-02-28T15:47:23.210Z,14.10
2019-02-28T15:50:01.789Z,14.00
2019-02-28T15:52:42.002Z,14.10
2019-02-28T15:55:22.142Z,14.00
2019-02-28T15:58:02.774Z,14.00
2019-02-28T16:00:43.954Z,14.00
2019-02-28T16:03:24.198Z,13.90
2019-02-28T16:06:04.379Z,13.90
2019-02-28T16:08:46.839Z,14.00
2019-02-28T16:11:25.478Z,14.10
2019-02-28T16:14:14.130Z,14.10
2019-02-28T16:16:47.570Z,14.00
2019-02-28T16:19:27.629Z,14.00
2019-02-28T16:22:07.430Z,13.90
2019-02-28T16:24:47.201Z,13.80
2019-02-28T16:27:29.590Z,13.90
2019-02-28T16:30:09.542Z,14.00
2019-02-28T16:32:50.193Z,14.00
2019-02-28T16:35:35.200Z,14.10
2019-02-28T16:38:15.601Z,14.00
2019-02-28T16:40:57.641Z,14.00
2019-02-28T16:43:38.292Z,14.00
2019-02-28T16:46:17.989Z,13.90
2019-02-28T16:48:58.152Z,13.90
2019-02-28T16:51:38.673Z,13.70
2019-02-28T16:54:19.397Z,13.80
2019-02-28T16:57:01.391Z,13.70
2019-02-28T16:59:41.152Z,13.80
2019-02-28T17:02:21.429Z,13.60
2019-02-28T17:05:01.609Z,13.60
2019-02-28T17:07:43.699Z,13.60
2019-02-28T17:10:30.049Z,13.70
2019-02-28T17:13:30.069Z,13.60
2019-02-28T17:16:29.350Z,13.60
2019-02-28T17:19:09.254Z,13.70
2019-02-28T17:21:52.297Z,13.50
2019-02-28T17:24:31.484Z,13.50
2019-02-28T17:27:30.721Z,13.40
2019-02-28T17:33:13.401Z,13.30
2019-02-28T17:35:53.447Z,13.30
2019-02-28T17:38:37.293Z,13.20
2019-02-28T17:41:15.953Z,13.10
2019-02-28T17:43:56.910Z,13.10
2019-02-28T17:46:37.440Z,13.00
2019-02-28T17:49:17.297Z,13.00
2019-02-28T17:51:58.616Z,12.90
2019-02-28T17:54:39.387Z,12.80
2019-02-28T17:57:19.260Z,12.80
2019-02-28T17:59:59.526Z,12.70
2019-02-28T18:02:40.061Z,12.50
2019-02-28T18:05:19.895Z,12.40
2019-02-28T18:08:00.522Z,12.40
2019-02-28T18:10:41.988Z,12.30
2019-02-28T18:13:21.894Z,12.30
2019-02-28T18:16:02.319Z,12.10
2019-02-28T18:18:42.575Z,12.10
2019-02-28T18:21:22.619Z,11.90
2019-02-28T18:24:04.289Z,11.70
2019-02-28T18:26:44.949Z,11.70
2019-02-28T18:29:25.030Z,11.70
2019-02-28T18:32:04.914Z,11.40
2019-02-28T18:34:45.253Z,11.30
2019-02-28T18:37:25.496Z,11.30
2019-02-28T18:40:05.578Z,11.20
2019-02-28T18:42:45.690Z,11.10
2019-02-28T18:45:25.929Z,11.10
2019-02-28T18:48:05.857Z,11.00
2019-02-28T18:50:45.640Z,11.00
2019-02-28T18:53:25.706Z,11.00
2019-02-28T18:56:06.141Z,11.00
2019-02-28T18:58:46.221Z,11.00
2019-02-28T19:01:26.926Z,11.00
2019-02-28T19:04:07.007Z,11.10
2019-02-28T19:06:46.698Z,11.10
2019-02-28T19:09:26.958Z,11.10
2019-02-28T19:12:07.090Z,11.10
2019-02-28T19:14:47.186Z,11.10
2019-02-28T19:17:27.442Z,11.10
2019-02-28T19:20:07.586Z,11.10
2019-02-28T19:22:47.602Z,11.10
2019-02-28T19:25:27.987Z,11.10
2019-02-28T19:28:08.151Z,11.10
2019-02-28T19:30:48.238Z,11.10
2019-02-28T19:33:27.907Z,11.20
2019-02-28T19:36:08.562Z,11.10
2019-02-28T19:38:48.686Z,11.00
2019-02-28T19:41:28.904Z,11.10
2019-02-28T19:43:57.645Z,11.10
2019-02-28T19:46:38.027Z,11.10
2019-02-28T19:49:19.877Z,11.00
2019-02-28T19:52:00.223Z,11.10
2019-02-28T19:54:40.663Z,10.90
2019-02-28T19:57:20.272Z,10.90
2019-02-28T20:00:00.700Z,10.80
2019-02-28T20:02:41.127Z,10.80
2019-02-28T20:05:21.993Z,10.90
2019-02-28T20:08:02.195Z,10.70
2019-02-28T20:10:42.918Z,10.70
2019-02-28T20:13:23.680Z,10.70
2019-02-28T20:16:04.560Z,10.70
2019-02-28T20:18:45.564Z,10.70
2019-02-28T20:21:25.372Z,10.70
2019-02-28T20:24:05.542Z,10.70
2019-02-28T20:26:45.697Z,10.80
2019-02-28T20:29:25.430Z,10.70
2019-02-28T20:32:05.933Z,10.80
2019-02-28T20:34:45.866Z,10.70
2019-02-28T20:37:26.234Z,10.60
2019-02-28T20:40:06.363Z,10.60
2019-02-28T20:42:46.722Z,10.60
2019-02-28T20:45:26.973Z,10.80
2019-02-28T20:48:06.721Z,10.70
2019-02-28T20:50:46.757Z,10.70
2019-02-28T20:53:26.887Z,10.70
2019-02-28T20:56:07.460Z,10.70
2019-02-28T20:58:47.630Z,10.60
2019-02-28T21:01:27.838Z,10.50
2019-02-28T21:04:07.656Z,10.50
2019-02-28T21:06:48.153Z,10.50
2019-02-28T21:09:29.921Z,10.60
2019-02-28T21:12:10.415Z,10.60
2019-02-28T21:14:50.610Z,10.50
2019-02-28T21:17:30.797Z,10.60
2019-02-28T21:20:12.185Z,10.50
2019-02-28T21:22:53.014Z,10.50
2019-02-28T21:25:32.838Z,10.50
2019-02-28T21:28:13.182Z,10.50
2019-02-28T21:30:53.430Z,10.40
2019-02-28T21:33:33.607Z,10.50
2019-02-28T21:36:13.501Z,10.50
2019-02-28T21:38:53.277Z,10.40
2019-02-28T21:41:33.787Z,10.50
2019-02-28T21:44:13.552Z,10.40
2019-02-28T21:46:54.021Z,10.50
2019-02-28T21:49:33.854Z,10.40
2019-02-28T21:52:14.622Z,10.50
2019-02-28T21:54:55.014Z,10.60
2019-02-28T21:57:34.594Z,10.40
2019-02-28T22:00:14.155Z,10.50
2019-02-28T22:02:53.909Z,10.50
2019-02-28T22:05:33.750Z,10.40
2019-02-28T22:08:13.570Z,10.40
2019-02-28T22:10:54.168Z,10.60
2019-02-28T22:13:34.970Z,10.40
2019-02-28T22:16:14.778Z,10.40
2019-02-28T22:18:54.730Z,10.30
2019-02-28T22:21:35.030Z,10.40
2019-02-28T22:24:15.259Z,10.30
2019-02-28T22:26:55.169Z,10.30
2019-02-28T22:29:35.227Z,10.30
2019-02-28T22:32:24.543Z,10.20
2019-02-28T22:35:08.309Z,10.30
2019-02-28T22:37:48.965Z,10.30
2019-02-28T22:40:29.109Z,10.30
2019-02-28T22:43:09.010Z,10.30
2019-02-28T22:45:49.192Z,10.30
2019-02-28T22:48:29.145Z,10.30
2019-02-28T22:51:09.296Z,10.30
2019-02-28T22:53:49.283Z,10.30
2019-02-28T22:56:29.135Z,10.40
2019-02-28T22:59:09.323Z,10.30
2019-02-28T23:01:49.294Z,10.20
2019-02-28T23:04:28.982Z,10.20
2019-02-28T23:07:08.844Z,10.30
2019-02-28T23:09:49.169Z,10.30
2019-02-28T23:12:29.198Z,10.20
2019-02-28T23:15:09.350Z,10.20
2019-02-28T23:17:49.439Z,10.20
2019-02-28T23:20:29.118Z,10.20
2019-02-28T23:23:09.590Z,10.20
2019-02-28T23:25:49.133Z,10.20
2019-02-28T23:28:31.338Z,10.20
2019-02-28T23:31:37.710Z,10.10
2019-02-28T23:34:26.565Z,10.00
2019-02-28T23:37:13.890Z,10.10
2019-02-28T23:40:01.114Z,10.00
2019-02-28T23:42:47.918Z,10.00
2019-02-28T23:45:35.270Z,10.00
2019-02-28T23:48:15.523Z,9.90
2019-02-28T23:50:55.629Z,9.80
2019-02-28T23:53:35.506Z,10.00
2019-02-28T23:56:15.701Z,9.80
2019-02-28T23:58:55.349Z,10.00
